createdAt,value
2022-08-17T00:02:26.259Z,23.90
2022-08-17T00:04:55.003Z,24.00
2022-08-17T00:07:22.376Z,24.00
2022-08-17T00:09:49.345Z,24.00
2022-08-17T00:12:41.114Z,24.00
2022-08-17T00:15:06.228Z,23.90
2022-08-17T00:17:37.534Z,23.90
2022-08-17T00:20:05.101Z,23.90
2022-08-17T00:22:36.316Z,23.80
2022-08-17T00:25:12.064Z,23.80
2022-08-17T00:27:39.285Z,23.80
2022-08-17T00:30:07.726Z,23.70
2022-08-17T00:33:23.066Z,23.80
2022-08-17T00:35:31.853Z,23.70
2022-08-17T00:37:58.707Z,23.70
2022-08-17T00:40:25.545Z,23.70
2022-08-17T00:42:53.465Z,23.60
2022-08-17T00:45:20.849Z,23.60
2022-08-17T00:47:48.490Z,23.50
2022-08-17T00:50:17.941Z,23.60
2022-08-17T00:52:54.764Z,23.50
2022-08-17T00:55:23.866Z,23.40
2022-08-17T00:57:55.523Z,23.40
2022-08-17T01:00:26.856Z,23.40
2022-08-17T01:03:00.444Z,23.40
2022-08-17T01:05:30.919Z,23.50
2022-08-17T01:08:00.244Z,23.50
2022-08-17T01:10:58.691Z,23.40
2022-08-17T01:13:31.245Z,23.30
2022-08-17T01:16:06.728Z,23.30
2022-08-17T01:18:34.738Z,23.30
2022-08-17T01:21:14.084Z,23.20
2022-08-17T01:23:42.607Z,23.20
2022-08-17T01:26:09.428Z,23.20
2022-08-17T01:28:54.328Z,23.20
2022-08-17T01:31:23.975Z,23.10
2022-08-17T01:33:51.476Z,23.10
2022-08-17T01:36:18.283Z,23.10
2022-08-17T01:38:45.063Z,23.00
2022-08-17T01:41:15.615Z,23.10
2022-08-17T01:43:57.477Z,23.10
2022-08-17T01:46:29.892Z,23.00
2022-08-17T01:48:58.169Z,23.10
2022-08-17T01:51:27.874Z,23.00
2022-08-17T01:53:58.727Z,22.90
2022-08-17T01:56:27.947Z,23.00
2022-08-17T01:58:55.634Z,23.00
2022-08-17T02:01:27.859Z,22.90
2022-08-17T02:03:59.778Z,22.80
2022-08-17T02:06:47.125Z,22.90
2022-08-17T02:09:23.410Z,22.90
2022-08-17T02:11:54.232Z,23.00
2022-08-17T02:14:22.704Z,22.80
2022-08-17T02:16:49.813Z,22.60
2022-08-17T02:19:16.985Z,22.70
2022-08-17T02:21:47.140Z,22.70
2022-08-17T02:24:58.160Z,22.80
2022-08-17T02:27:07.378Z,22.70
2022-08-17T02:29:34.262Z,22.70
2022-08-17T02:32:02.027Z,22.70
2022-08-17T02:34:30.005Z,22.60
2022-08-17T02:36:56.812Z,22.70
2022-08-17T02:39:24.148Z,22.70
2022-08-17T02:41:59.808Z,22.60
2022-08-17T02:44:39.023Z,22.70
2022-08-17T02:47:08.717Z,22.60
2022-08-17T14:26:48.716Z,22.40
2022-08-17T14:29:15.760Z,24.90
2022-08-17T14:31:42.814Z,24.90
2022-08-17T14:34:20.727Z,25.20
2022-08-17T14:54:33.076Z,24.90
2022-08-17T14:57:24.867Z,26.00
2022-08-17T14:59:49.224Z,26.50
2022-08-17T15:02:29.751Z,25.60
2022-08-17T15:05:04.348Z,25.80
2022-08-17T15:07:31.940Z,25.80
2022-08-17T15:10:02.637Z,26.20
2022-08-17T15:12:34.647Z,26.00
2022-08-17T15:15:04.721Z,26.00
2022-08-17T15:17:44.333Z,26.70
2022-08-17T15:20:27.878Z,26.20
2022-08-17T15:22:56.103Z,26.60
2022-08-17T15:25:24.955Z,26.30
2022-08-17T15:27:52.450Z,26.10
2022-08-17T15:30:19.740Z,26.50
2022-08-17T15:32:51.256Z,26.70
2022-08-17T15:35:27.426Z,26.50
2022-08-17T15:38:06.207Z,27.00
2022-08-17T15:40:37.493Z,26.60
2022-08-17T15:43:22.027Z,26.50
2022-08-17T15:46:05.036Z,26.70
2022-08-17T15:48:42.946Z,26.70
2022-08-17T15:51:26.385Z,25.70
2022-08-17T15:53:55.820Z,26.20
2022-08-17T15:56:23.476Z,26.60
2022-08-17T15:58:50.273Z,26.50
2022-08-17T16:02:33.657Z,26.60
2022-08-17T16:04:26.407Z,26.60
2022-08-17T16:06:54.839Z,26.30
2022-08-17T16:09:21.621Z,25.90
2022-08-17T16:11:53.736Z,25.70
2022-08-17T16:14:23.178Z,25.90
2022-08-17T16:16:51.644Z,25.70
2022-08-17T16:19:18.461Z,25.70
2022-08-17T16:21:45.247Z,25.80
2022-08-17T16:24:13.454Z,25.60
2022-08-17T16:26:40.727Z,25.50
2022-08-17T16:29:08.480Z,25.40
2022-08-17T16:31:36.354Z,24.90
2022-08-17T16:34:16.838Z,24.80
2022-08-17T16:36:54.779Z,24.70
2022-08-17T16:39:23.021Z,24.90
2022-08-17T16:41:50.273Z,24.70
2022-08-17T16:44:21.323Z,24.70
2022-08-17T16:46:50.262Z,24.60
2022-08-17T16:49:36.216Z,24.60
2022-08-17T16:52:12.808Z,24.30
2022-08-17T16:54:43.811Z,24.20
2022-08-17T22:07:09.351Z,24.50
2022-08-17T22:09:46.400Z,20.90
2022-08-17T22:12:21.691Z,20.90
2022-08-17T22:15:00.599Z,20.80
2022-08-17T22:17:46.741Z,20.70
2022-08-17T22:20:21.123Z,20.90
2022-08-17T22:23:12.726Z,20.90
2022-08-17T22:25:57.402Z,20.80
2022-08-17T22:28:52.819Z,20.70
2022-08-17T22:31:22.445Z,20.80
2022-08-17T22:34:09.739Z,20.70
2022-08-17T22:36:39.392Z,20.60
2022-08-17T22:39:09.204Z,20.60
2022-08-17T22:41:51.101Z,20.60
2022-08-17T22:44:31.978Z,20.70
2022-08-17T22:47:16.496Z,20.70
2022-08-17T22:50:00.262Z,20.70
2022-08-17T22:53:16.577Z,20.80
2022-08-17T22:56:13.769Z,20.60
2022-08-17T22:59:17.851Z,20.40
2022-08-17T23:02:05.955Z,20.40
2022-08-17T23:04:36.450Z,20.40
2022-08-17T23:07:03.415Z,20.50
2022-08-17T23:09:30.196Z,20.60
2022-08-17T23:11:58.556Z,20.60
2022-08-17T23:14:31.459Z,20.60
2022-08-17T23:16:59.570Z,20.70
2022-08-17T23:19:27.584Z,20.50
2022-08-17T23:21:56.352Z,20.40
2022-08-17T23:24:26.072Z,20.60
2022-08-17T23:26:53.616Z,20.60
2022-08-17T23:29:24.562Z,20.60
2022-08-17T23:31:55.364Z,20.50
2022-08-17T23:34:23.151Z,20.40
2022-08-17T23:36:53.316Z,20.40
2022-08-17T23:39:28.001Z,20.40
2022-08-17T23:42:00.190Z,20.40
2022-08-17T23:44:29.105Z,20.40
2022-08-17T23:46:56.301Z,20.50
2022-08-17T23:49:25.144Z,20.20
2022-08-17T23:51:55.107Z,20.20
2022-08-17T23:54:29.314Z,20.20
2022-08-17T23:56:56.298Z,20.20
2022-08-17T23:59:23.583Z,20.10
